Terminal Aerodrome Forecast
Issued by NWS

Current Version | Previous Version | Text Only | Print | Product List | Glossary On
Versions: 1 2 3 4 5 6 7 8 9 10 11 12 13 14 15 16 17 18 19 20 21
000
FTUS43 KDTX 231727
TAFMBS
TAF
KMBS 231727Z 2318/2418 26007KT P6SM BKN015
     FM231900 24007KT P6SM SCT030
     FM240700 21005KT P6SM OVC120
     FM241600 21007KT P6SM BKN025 OVC050=

USA.gov is the U.S. government's official web portal to all federal, state and local government web resources and services.